createdAt,value
2017-05-15T00:00:03.126Z,0
2017-05-15T00:05:03.472Z,0
2017-05-15T00:10:03.311Z,0
2017-05-15T00:15:03.028Z,0
2017-05-15T00:20:02.775Z,0
2017-05-15T00:25:03.426Z,0
2017-05-15T00:30:03.224Z,0
2017-05-15T00:35:02.809Z,0
2017-05-15T00:40:02.611Z,0
2017-05-15T00:45:03.295Z,0
2017-05-15T00:50:03.151Z,0
2017-05-15T00:55:02.861Z,0
2017-05-15T01:00:03.466Z,0
2017-05-15T01:05:03.262Z,0
2017-05-15T01:10:02.911Z,0
2017-05-15T01:15:03.548Z,0
2017-05-15T01:20:03.290Z,0
2017-05-15T01:25:03.046Z,0
2017-05-15T01:30:02.646Z,0
2017-05-15T01:35:03.271Z,0
2017-05-15T01:40:02.996Z,0
2017-05-15T01:45:02.635Z,0
2017-05-15T01:50:03.259Z,0
2017-05-15T01:55:03.168Z,0
2017-05-15T02:00:02.755Z,0
2017-05-15T02:05:03.377Z,0
2017-05-15T02:10:03.172Z,0
2017-05-15T02:15:02.991Z,0
2017-05-15T02:20:02.808Z,0
2017-05-15T02:25:03.508Z,0
2017-05-15T02:30:03.218Z,0
2017-05-15T02:35:02.868Z,0
2017-05-15T02:40:02.722Z,0
2017-05-15T02:45:03.341Z,0
2017-05-15T02:50:03.175Z,0
2017-05-15T02:55:02.932Z,0
2017-05-15T03:00:02.694Z,0
2017-05-15T03:05:03.470Z,0
2017-05-15T03:10:03.144Z,0
2017-05-15T03:15:02.713Z,0
2017-05-15T03:20:03.436Z,0
2017-05-15T03:25:03.009Z,0
2017-05-15T03:30:02.822Z,0
2017-05-15T03:35:03.598Z,0
2017-05-15T03:40:03.332Z,0
2017-05-15T03:45:02.951Z,0
2017-05-15T03:50:02.625Z,0
2017-05-15T03:55:03.317Z,0
2017-05-15T04:00:03.031Z,0
2017-05-15T04:05:02.737Z,0
2017-05-15T04:10:03.570Z,0
2017-05-15T04:15:03.296Z,0
2017-05-15T04:20:02.989Z,0
2017-05-15T04:25:02.721Z,0
2017-05-15T04:30:02.747Z,0
2017-05-15T04:35:03.356Z,0
2017-05-15T04:40:03.198Z,0
2017-05-15T04:45:02.885Z,0
2017-05-15T04:50:02.707Z,0
2017-05-15T04:55:03.447Z,0
2017-05-15T05:00:03.139Z,0
2017-05-15T05:05:02.957Z,0
2017-05-15T05:10:02.715Z,0
2017-05-15T05:15:03.522Z,0
2017-05-15T05:20:03.157Z,0
2017-05-15T05:25:02.811Z,0
2017-05-15T05:30:03.418Z,0
2017-05-15T05:35:03.149Z,0
2017-05-15T05:40:02.880Z,0
2017-05-15T05:45:03.553Z,0
2017-05-15T05:50:03.174Z,0
2017-05-15T05:55:02.767Z,1
2017-05-15T06:00:03.382Z,1
2017-05-15T06:05:03.113Z,0
2017-05-15T06:10:02.894Z,2
2017-05-15T06:15:02.636Z,2
2017-05-15T06:20:03.276Z,0
2017-05-15T06:25:03.006Z,3
2017-05-15T06:30:02.692Z,3
2017-05-15T06:35:03.474Z,3
2017-05-15T06:40:03.242Z,4
2017-05-15T06:45:03.041Z,3
2017-05-15T06:50:02.647Z,4
2017-05-15T06:55:03.356Z,5
2017-05-15T07:00:03.181Z,3
2017-05-15T07:05:02.829Z,3
2017-05-15T07:10:03.586Z,7
2017-05-15T07:15:03.365Z,3
2017-05-15T07:20:03.112Z,0
2017-05-15T07:25:02.859Z,0
2017-05-15T07:30:02.726Z,4
2017-05-15T07:35:03.321Z,3
2017-05-15T07:40:03.112Z,3
2017-05-15T07:45:02.941Z,3
2017-05-15T07:50:02.869Z,2
2017-05-15T07:55:03.491Z,3
2017-05-15T08:00:03.297Z,2
2017-05-15T08:05:03.025Z,4
2017-05-15T08:10:02.721Z,6
2017-05-15T08:15:03.596Z,6
2017-05-15T08:20:03.434Z,5
2017-05-15T08:25:03.157Z,7
2017-05-15T08:30:02.987Z,4
2017-05-15T08:35:02.857Z,4
2017-05-15T08:40:02.699Z,7
2017-05-15T08:45:03.488Z,3
2017-05-15T08:50:03.069Z,2
2017-05-15T08:55:02.681Z,4
2017-05-15T09:00:03.327Z,6
2017-05-15T09:05:03.061Z,5
2017-05-15T09:10:03.215Z,3
2017-05-15T09:15:03.243Z,4
2017-05-15T09:20:02.841Z,3
2017-05-15T09:25:02.646Z,2
2017-05-15T09:30:03.326Z,7
2017-05-15T09:35:02.952Z,2
2017-05-15T09:40:02.792Z,3
2017-05-15T09:45:02.638Z,2
2017-05-15T09:50:03.286Z,7
2017-05-15T09:55:03.045Z,0
2017-05-15T10:00:02.686Z,4
2017-05-15T10:05:03.434Z,7
2017-05-15T10:10:03.102Z,2
2017-05-15T10:15:02.666Z,6
2017-05-15T10:20:03.296Z,4
2017-05-15T10:25:08.022Z,1
2017-05-15T10:30:03.085Z,3
2017-05-15T10:35:03.096Z,2
2017-05-15T10:40:03.519Z,4
2017-05-15T10:45:03.294Z,6
2017-05-15T10:50:03.060Z,1
2017-05-15T10:55:02.769Z,7
2017-05-15T11:00:03.462Z,4
2017-05-15T11:05:03.111Z,4
2017-05-15T11:10:02.955Z,3
2017-05-15T11:15:02.631Z,4
2017-05-15T11:20:03.269Z,8
2017-05-15T11:25:02.989Z,6
2017-05-15T11:30:02.934Z,6
2017-05-15T11:35:02.605Z,3
2017-05-15T11:40:02.664Z,7
2017-05-15T11:45:02.819Z,3
2017-05-15T11:50:02.703Z,5
2017-05-15T11:55:03.527Z,5
2017-05-15T12:00:03.490Z,2
2017-05-15T12:05:03.153Z,7
2017-05-15T12:10:03.298Z,4
2017-05-15T12:15:03.584Z,4
2017-05-15T12:20:03.036Z,6
2017-05-15T12:25:03.305Z,3
2017-05-15T12:30:03.355Z,2
2017-05-15T12:35:03.621Z,4
2017-05-15T12:40:02.599Z,6
2017-05-15T12:45:02.974Z,2
2017-05-15T12:50:03.477Z,2
2017-05-15T12:55:03.552Z,3
2017-05-15T13:00:03.425Z,7
2017-05-15T13:05:03.117Z,2
2017-05-15T13:10:03.372Z,6
2017-05-15T13:15:03.273Z,0
2017-05-15T13:20:03.279Z,3
2017-05-15T13:25:02.635Z,7
2017-05-15T13:30:03.077Z,6
2017-05-15T13:35:03.410Z,2
2017-05-15T13:40:03.113Z,8
2017-05-15T13:45:03.093Z,6
2017-05-15T13:50:02.773Z,5
2017-05-15T13:55:02.698Z,0
2017-05-15T14:00:02.696Z,3
2017-05-15T14:05:03.104Z,3
2017-05-15T14:10:03.544Z,5
2017-05-15T14:15:05.449Z,7
2017-05-15T14:20:02.833Z,0
2017-05-15T14:25:03.161Z,7
2017-05-15T14:30:03.526Z,10
2017-05-15T14:35:03.473Z,3
2017-05-15T14:40:03.722Z,6
2017-05-15T14:45:03.075Z,4
2017-05-15T14:50:02.766Z,4
2017-05-15T14:55:02.828Z,4
2017-05-15T15:00:02.752Z,6
2017-05-15T15:05:03.059Z,3
2017-05-15T15:10:02.976Z,5
2017-05-15T15:15:03.577Z,4
2017-05-15T15:20:03.613Z,7
2017-05-15T15:25:03.093Z,3
2017-05-15T15:30:03.217Z,3
2017-05-15T15:35:03.220Z,5
2017-05-15T15:40:03.557Z,5
2017-05-15T15:45:03.564Z,1
2017-05-15T15:50:03.412Z,1
2017-05-15T15:55:02.897Z,4
2017-05-15T16:00:03.537Z,2
2017-05-15T16:05:03.378Z,7
2017-05-15T16:10:03.186Z,2
2017-05-15T16:15:03.194Z,5
2017-05-15T16:20:02.887Z,3
2017-05-15T16:25:03.121Z,2
2017-05-15T16:30:02.866Z,3
2017-05-15T16:35:02.588Z,5
2017-05-15T16:40:03.307Z,2
2017-05-15T16:45:02.980Z,3
2017-05-15T16:50:02.651Z,5
2017-05-15T16:55:03.431Z,5
2017-05-15T17:00:03.033Z,4
2017-05-15T17:05:02.948Z,2
2017-05-15T17:10:02.724Z,1
2017-05-15T17:15:03.309Z,1
2017-05-15T17:20:03.067Z,0
2017-05-15T17:25:02.684Z,0
2017-05-15T17:30:03.518Z,0
2017-05-15T17:35:03.162Z,0
2017-05-15T17:40:02.932Z,0
2017-05-15T17:45:02.790Z,0
2017-05-15T17:50:03.474Z,0
2017-05-15T17:55:03.208Z,0
2017-05-15T18:00:03.128Z,0
2017-05-15T18:05:02.912Z,0
2017-05-15T18:10:03.550Z,0
2017-05-15T18:15:03.214Z,0
2017-05-15T18:20:03.124Z,0
2017-05-15T18:25:03.207Z,0
2017-05-15T18:30:03.120Z,0
2017-05-15T18:35:03.359Z,0
2017-05-15T18:40:03.367Z,0
2017-05-15T18:45:03.449Z,1
2017-05-15T18:50:03.383Z,0
2017-05-15T18:55:02.851Z,0
2017-05-15T19:00:03.267Z,0
2017-05-15T19:05:02.853Z,0
2017-05-15T19:10:02.809Z,0
2017-05-15T19:15:02.729Z,0
2017-05-15T19:20:02.992Z,0
2017-05-15T19:25:03.094Z,0
2017-05-15T19:30:03.400Z,0
2017-05-15T19:35:02.893Z,0
2017-05-15T19:40:03.049Z,0
2017-05-15T19:45:03.109Z,0
2017-05-15T19:50:02.985Z,0
2017-05-15T19:55:03.328Z,0
2017-05-15T20:00:03.407Z,0
2017-05-15T20:05:03.216Z,0
2017-05-15T20:10:03.322Z,0
2017-05-15T20:15:02.880Z,0
2017-05-15T20:20:02.851Z,0
2017-05-15T20:25:02.885Z,1
2017-05-15T20:30:02.653Z,0
2017-05-15T20:35:02.701Z,0
2017-05-15T20:40:03.168Z,0
2017-05-15T20:45:03.153Z,0
2017-05-15T20:50:02.584Z,0
2017-05-15T20:55:03.300Z,0
2017-05-15T21:00:03.018Z,0
2017-05-15T21:05:02.959Z,0
2017-05-15T21:10:03.475Z,0
2017-05-15T21:15:03.574Z,0
2017-05-15T21:20:02.709Z,0
2017-05-15T21:25:02.826Z,0
2017-05-15T21:30:02.956Z,0
2017-05-15T21:35:02.868Z,0
2017-05-15T21:40:03.530Z,0
2017-05-15T21:45:03.255Z,0
2017-05-15T21:50:03.037Z,0
2017-05-15T21:55:02.637Z,0
2017-05-15T22:00:03.374Z,0
2017-05-15T22:05:03.307Z,0
2017-05-15T22:10:03.210Z,0
2017-05-15T22:15:02.821Z,0
2017-05-15T22:20:02.669Z,0
2017-05-15T22:25:03.441Z,0
2017-05-15T22:30:03.448Z,0
2017-05-15T22:35:03.270Z,0
2017-05-15T22:40:02.993Z,0
2017-05-15T22:45:02.657Z,0
2017-05-15T22:50:03.441Z,0
2017-05-15T22:55:03.022Z,0
2017-05-15T23:00:02.823Z,0
2017-05-15T23:05:03.372Z,0
2017-05-15T23:10:03.085Z,0
2017-05-15T23:15:05.762Z,0
2017-05-15T23:20:03.353Z,0
2017-05-15T23:25:03.148Z,0
2017-05-15T23:30:03.022Z,0
2017-05-15T23:35:02.653Z,0
2017-05-15T23:41:06.386Z,0
2017-05-15T23:45:02.947Z,0
2017-05-15T23:50:02.684Z,0
2017-05-15T23:55:03.452Z,0
